sensor_id;sensor_type;location;lat;lon;timestamp;P1;durP1;ratioP1;P2;durP2;ratioP2
53644;SDS011;39547;45.554;12.068;2022-10-16T00:01:10;65.90;;;35.50;;
53644;SDS011;39547;45.554;12.068;2022-10-16T00:07:13;56.30;;;30.42;;
53644;SDS011;39547;45.554;12.068;2022-10-16T00:13:15;64.00;;;33.10;;
53644;SDS011;39547;45.554;12.068;2022-10-16T00:19:18;57.53;;;31.13;;
53644;SDS011;39547;45.554;12.068;2022-10-16T00:25:19;60.60;;;32.42;;
53644;SDS011;39547;45.554;12.068;2022-10-16T00:31:21;61.50;;;34.35;;
53644;SDS011;39547;45.554;12.068;2022-10-16T00:37:23;61.75;;;33.50;;
53644;SDS011;39547;45.554;12.068;2022-10-16T00:49:51;60.30;;;31.52;;
53644;SDS011;39547;45.554;12.068;2022-10-16T00:55:59;59.35;;;31.42;;
53644;SDS011;39547;45.554;12.068;2022-10-16T01:02:01;64.65;;;33.20;;
53644;SDS011;39547;45.554;12.068;2022-10-16T01:20:30;58.85;;;31.23;;
53644;SDS011;39547;45.554;12.068;2022-10-16T01:33:10;55.63;;;29.25;;
53644;SDS011;39547;45.554;12.068;2022-10-16T01:39:36;60.25;;;33.80;;
53644;SDS011;39547;45.554;12.068;2022-10-16T01:45:40;67.72;;;37.70;;
53644;SDS011;39547;45.554;12.068;2022-10-16T01:51:45;72.47;;;37.80;;
53644;SDS011;39547;45.554;12.068;2022-10-16T01:57:49;73.32;;;37.97;;
53644;SDS011;39547;45.554;12.068;2022-10-16T02:03:52;67.85;;;36.55;;
53644;SDS011;39547;45.554;12.068;2022-10-16T02:09:57;70.03;;;36.83;;
53644;SDS011;39547;45.554;12.068;2022-10-16T02:16:00;67.03;;;37.05;;
53644;SDS011;39547;45.554;12.068;2022-10-16T02:22:02;75.88;;;36.75;;
53644;SDS011;39547;45.554;12.068;2022-10-16T02:28:15;62.22;;;33.42;;
53644;SDS011;39547;45.554;12.068;2022-10-16T02:34:20;67.20;;;36.65;;
53644;SDS011;39547;45.554;12.068;2022-10-16T02:40:23;72.13;;;37.15;;
53644;SDS011;39547;45.554;12.068;2022-10-16T02:46:25;79.82;;;38.58;;
53644;SDS011;39547;45.554;12.068;2022-10-16T02:52:26;77.72;;;38.38;;
53644;SDS011;39547;45.554;12.068;2022-10-16T02:58:28;82.53;;;40.47;;
53644;SDS011;39547;45.554;12.068;2022-10-16T03:04:29;82.40;;;39.70;;
53644;SDS011;39547;45.554;12.068;2022-10-16T03:10:31;82.63;;;39.83;;
53644;SDS011;39547;45.554;12.068;2022-10-16T03:16:32;67.15;;;34.17;;
53644;SDS011;39547;45.554;12.068;2022-10-16T03:22:34;89.20;;;41.80;;
53644;SDS011;39547;45.554;12.068;2022-10-16T03:28:35;79.18;;;38.65;;
53644;SDS011;39547;45.554;12.068;2022-10-16T03:34:37;84.82;;;41.15;;
53644;SDS011;39547;45.554;12.068;2022-10-16T03:40:38;89.30;;;40.00;;
53644;SDS011;39547;45.554;12.068;2022-10-16T03:46:40;88.57;;;40.80;;
53644;SDS011;39547;45.554;12.068;2022-10-16T03:52:41;91.40;;;44.03;;
53644;SDS011;39547;45.554;12.068;2022-10-16T03:58:43;76.85;;;38.28;;
53644;SDS011;39547;45.554;12.068;2022-10-16T04:04:44;86.20;;;42.65;;
53644;SDS011;39547;45.554;12.068;2022-10-16T04:10:46;84.93;;;40.78;;
53644;SDS011;39547;45.554;12.068;2022-10-16T04:16:47;74.45;;;37.53;;
53644;SDS011;39547;45.554;12.068;2022-10-16T04:22:49;82.28;;;42.92;;
53644;SDS011;39547;45.554;12.068;2022-10-16T04:28:50;81.00;;;41.33;;
53644;SDS011;39547;45.554;12.068;2022-10-16T04:34:51;81.88;;;41.22;;
53644;SDS011;39547;45.554;12.068;2022-10-16T04:40:53;81.25;;;41.15;;
53644;SDS011;39547;45.554;12.068;2022-10-16T04:46:54;82.55;;;40.65;;
53644;SDS011;39547;45.554;12.068;2022-10-16T04:52:56;78.70;;;39.30;;
53644;SDS011;39547;45.554;12.068;2022-10-16T04:58:57;79.75;;;39.13;;
53644;SDS011;39547;45.554;12.068;2022-10-16T05:04:59;81.53;;;41.13;;
53644;SDS011;39547;45.554;12.068;2022-10-16T05:11:00;76.40;;;38.65;;
53644;SDS011;39547;45.554;12.068;2022-10-16T05:17:02;81.97;;;41.42;;
53644;SDS011;39547;45.554;12.068;2022-10-16T05:23:04;74.07;;;37.58;;
53644;SDS011;39547;45.554;12.068;2022-10-16T05:29:05;77.20;;;39.33;;
53644;SDS011;39547;45.554;12.068;2022-10-16T05:35:07;75.18;;;38.05;;
53644;SDS011;39547;45.554;12.068;2022-10-16T05:41:08;65.28;;;34.83;;
53644;SDS011;39547;45.554;12.068;2022-10-16T05:47:12;81.13;;;39.20;;
53644;SDS011;39547;45.554;12.068;2022-10-16T05:53:15;71.88;;;37.45;;
53644;SDS011;39547;45.554;12.068;2022-10-16T05:59:16;73.38;;;38.38;;
53644;SDS011;39547;45.554;12.068;2022-10-16T06:05:18;65.00;;;33.88;;
53644;SDS011;39547;45.554;12.068;2022-10-16T06:11:23;65.35;;;34.50;;
53644;SDS011;39547;45.554;12.068;2022-10-16T06:17:27;66.32;;;34.85;;
53644;SDS011;39547;45.554;12.068;2022-10-16T06:23:28;78.13;;;38.35;;
53644;SDS011;39547;45.554;12.068;2022-10-16T06:29:30;67.30;;;35.25;;
53644;SDS011;39547;45.554;12.068;2022-10-16T06:35:31;69.63;;;36.80;;
53644;SDS011;39547;45.554;12.068;2022-10-16T06:41:33;51.90;;;29.00;;
53644;SDS011;39547;45.554;12.068;2022-10-16T06:47:45;59.25;;;32.28;;
53644;SDS011;39547;45.554;12.068;2022-10-16T06:53:47;68.90;;;38.03;;
53644;SDS011;39547;45.554;12.068;2022-10-16T06:59:51;55.83;;;32.20;;
53644;SDS011;39547;45.554;12.068;2022-10-16T07:05:52;60.97;;;33.53;;
53644;SDS011;39547;45.554;12.068;2022-10-16T07:11:53;67.97;;;36.22;;
53644;SDS011;39547;45.554;12.068;2022-10-16T07:17:55;53.35;;;29.95;;
53644;SDS011;39547;45.554;12.068;2022-10-16T07:23:58;56.15;;;31.65;;
53644;SDS011;39547;45.554;12.068;2022-10-16T07:30:01;52.55;;;30.95;;
53644;SDS011;39547;45.554;12.068;2022-10-16T07:36:03;54.17;;;31.38;;
53644;SDS011;39547;45.554;12.068;2022-10-16T07:42:05;50.60;;;29.55;;
53644;SDS011;39547;45.554;12.068;2022-10-16T07:48:08;50.47;;;28.83;;
53644;SDS011;39547;45.554;12.068;2022-10-16T07:54:09;63.80;;;36.28;;
53644;SDS011;39547;45.554;12.068;2022-10-16T08:00:11;70.72;;;38.90;;
53644;SDS011;39547;45.554;12.068;2022-10-16T08:06:15;70.53;;;39.47;;
53644;SDS011;39547;45.554;12.068;2022-10-16T08:12:17;53.10;;;30.40;;
53644;SDS011;39547;45.554;12.068;2022-10-16T08:18:19;69.75;;;38.20;;
53644;SDS011;39547;45.554;12.068;2022-10-16T08:24:20;69.13;;;41.33;;
53644;SDS011;39547;45.554;12.068;2022-10-16T08:30:23;66.28;;;37.75;;
53644;SDS011;39547;45.554;12.068;2022-10-16T08:36:25;68.50;;;39.00;;
53644;SDS011;39547;45.554;12.068;2022-10-16T08:42:33;66.18;;;35.25;;
53644;SDS011;39547;45.554;12.068;2022-10-16T08:48:46;59.78;;;35.13;;
53644;SDS011;39547;45.554;12.068;2022-10-16T08:54:53;62.13;;;35.50;;
53644;SDS011;39547;45.554;12.068;2022-10-16T09:00:58;48.23;;;28.20;;
53644;SDS011;39547;45.554;12.068;2022-10-16T09:07:04;62.38;;;35.40;;
53644;SDS011;39547;45.554;12.068;2022-10-16T09:13:18;51.83;;;30.73;;
53644;SDS011;39547;45.554;12.068;2022-10-16T09:19:29;59.28;;;33.88;;
53644;SDS011;39547;45.554;12.068;2022-10-16T09:25:39;63.97;;;36.10;;
53644;SDS011;39547;45.554;12.068;2022-10-16T09:31:43;59.60;;;36.08;;
53644;SDS011;39547;45.554;12.068;2022-10-16T09:37:45;56.17;;;34.00;;
53644;SDS011;39547;45.554;12.068;2022-10-16T09:43:54;53.35;;;32.65;;
53644;SDS011;39547;45.554;12.068;2022-10-16T09:49:59;56.88;;;34.17;;
53644;SDS011;39547;45.554;12.068;2022-10-16T09:56:06;49.28;;;30.88;;
53644;SDS011;39547;45.554;12.068;2022-10-16T10:02:11;47.30;;;29.30;;
53644;SDS011;39547;45.554;12.068;2022-10-16T10:08:16;53.47;;;32.33;;
53644;SDS011;39547;45.554;12.068;2022-10-16T10:14:23;47.97;;;29.90;;
53644;SDS011;39547;45.554;12.068;2022-10-16T10:20:35;47.00;;;30.02;;
53644;SDS011;39547;45.554;12.068;2022-10-16T10:26:41;43.20;;;27.27;;
53644;SDS011;39547;45.554;12.068;2022-10-16T10:32:56;39.92;;;24.65;;
53644;SDS011;39547;45.554;12.068;2022-10-16T10:45:26;37.30;;;24.02;;
53644;SDS011;39547;45.554;12.068;2022-10-16T10:57:54;43.10;;;27.00;;
53644;SDS011;39547;45.554;12.068;2022-10-16T11:11:42;43.60;;;27.30;;
53644;SDS011;39547;45.554;12.068;2022-10-16T11:17:29;46.05;;;28.70;;
53644;SDS011;39547;45.554;12.068;2022-10-16T11:23:38;45.88;;;28.95;;
53644;SDS011;39547;45.554;12.068;2022-10-16T11:29:59;44.75;;;28.98;;
53644;SDS011;39547;45.554;12.068;2022-10-16T11:36:18;45.38;;;28.77;;
53644;SDS011;39547;45.554;12.068;2022-10-16T11:42:39;39.70;;;25.17;;
53644;SDS011;39547;45.554;12.068;2022-10-16T11:55:20;42.13;;;26.55;;
53644;SDS011;39547;45.554;12.068;2022-10-16T12:07:50;41.25;;;26.60;;
53644;SDS011;39547;45.554;12.068;2022-10-16T12:26:13;38.13;;;24.38;;
53644;SDS011;39547;45.554;12.068;2022-10-16T12:32:22;35.88;;;23.05;;
53644;SDS011;39547;45.554;12.068;2022-10-16T12:44:47;37.72;;;24.92;;
53644;SDS011;39547;45.554;12.068;2022-10-16T12:50:48;38.40;;;25.38;;
53644;SDS011;39547;45.554;12.068;2022-10-16T13:09:40;39.38;;;26.00;;
53644;SDS011;39547;45.554;12.068;2022-10-16T13:28:06;37.38;;;24.05;;
53644;SDS011;39547;45.554;12.068;2022-10-16T13:34:17;38.40;;;25.73;;
53644;SDS011;39547;45.554;12.068;2022-10-16T13:40:23;37.95;;;24.45;;
53644;SDS011;39547;45.554;12.068;2022-10-16T13:46:25;39.85;;;25.80;;
53644;SDS011;39547;45.554;12.068;2022-10-16T13:52:27;38.78;;;24.60;;
53644;SDS011;39547;45.554;12.068;2022-10-16T13:58:29;42.53;;;27.10;;
53644;SDS011;39547;45.554;12.068;2022-10-16T14:04:31;37.72;;;24.70;;
53644;SDS011;39547;45.554;12.068;2022-10-16T14:10:34;35.83;;;24.08;;
53644;SDS011;39547;45.554;12.068;2022-10-16T14:16:35;38.40;;;24.88;;
53644;SDS011;39547;45.554;12.068;2022-10-16T14:22:41;40.00;;;24.58;;
53644;SDS011;39547;45.554;12.068;2022-10-16T14:28:43;38.22;;;25.10;;
53644;SDS011;39547;45.554;12.068;2022-10-16T14:34:52;37.60;;;24.73;;
53644;SDS011;39547;45.554;12.068;2022-10-16T14:40:55;37.40;;;24.23;;
53644;SDS011;39547;45.554;12.068;2022-10-16T14:53:30;41.08;;;25.73;;
53644;SDS011;39547;45.554;12.068;2022-10-16T14:59:36;37.97;;;23.70;;
53644;SDS011;39547;45.554;12.068;2022-10-16T15:05:40;36.53;;;23.52;;
53644;SDS011;39547;45.554;12.068;2022-10-16T15:11:41;35.40;;;22.38;;
53644;SDS011;39547;45.554;12.068;2022-10-16T15:17:43;35.35;;;23.27;;
53644;SDS011;39547;45.554;12.068;2022-10-16T15:23:44;36.58;;;24.13;;
53644;SDS011;39547;45.554;12.068;2022-10-16T15:29:46;40.30;;;25.45;;
53644;SDS011;39547;45.554;12.068;2022-10-16T15:35:48;35.70;;;22.45;;
53644;SDS011;39547;45.554;12.068;2022-10-16T15:41:51;35.72;;;22.75;;
53644;SDS011;39547;45.554;12.068;2022-10-16T15:47:54;38.72;;;25.92;;
53644;SDS011;39547;45.554;12.068;2022-10-16T15:53:55;36.17;;;22.55;;
53644;SDS011;39547;45.554;12.068;2022-10-16T15:59:57;36.88;;;23.40;;
53644;SDS011;39547;45.554;12.068;2022-10-16T16:06:03;37.63;;;23.75;;
53644;SDS011;39547;45.554;12.068;2022-10-16T16:12:06;36.25;;;23.63;;
53644;SDS011;39547;45.554;12.068;2022-10-16T16:18:07;38.80;;;25.15;;
53644;SDS011;39547;45.554;12.068;2022-10-16T16:24:10;35.90;;;22.92;;
53644;SDS011;39547;45.554;12.068;2022-10-16T16:30:11;35.72;;;23.23;;
53644;SDS011;39547;45.554;12.068;2022-10-16T16:36:13;35.38;;;22.05;;
53644;SDS011;39547;45.554;12.068;2022-10-16T16:42:14;41.15;;;26.63;;
53644;SDS011;39547;45.554;12.068;2022-10-16T16:48:17;45.67;;;28.02;;
53644;SDS011;39547;45.554;12.068;2022-10-16T16:54:19;43.22;;;26.92;;
53644;SDS011;39547;45.554;12.068;2022-10-16T17:00:20;44.25;;;27.02;;
53644;SDS011;39547;45.554;12.068;2022-10-16T17:06:23;40.05;;;24.17;;
53644;SDS011;39547;45.554;12.068;2022-10-16T17:12:28;43.33;;;26.20;;
53644;SDS011;39547;45.554;12.068;2022-10-16T17:18:32;40.83;;;25.08;;
53644;SDS011;39547;45.554;12.068;2022-10-16T17:24:34;43.60;;;26.98;;
53644;SDS011;39547;45.554;12.068;2022-10-16T17:30:35;52.38;;;30.70;;
53644;SDS011;39547;45.554;12.068;2022-10-16T17:36:38;50.95;;;31.67;;
53644;SDS011;39547;45.554;12.068;2022-10-16T17:42:47;57.08;;;34.25;;
53644;SDS011;39547;45.554;12.068;2022-10-16T17:48:50;50.25;;;31.08;;
53644;SDS011;39547;45.554;12.068;2022-10-16T17:54:54;61.35;;;35.45;;
53644;SDS011;39547;45.554;12.068;2022-10-16T18:00:58;57.70;;;36.43;;
53644;SDS011;39547;45.554;12.068;2022-10-16T18:06:59;50.90;;;31.83;;
53644;SDS011;39547;45.554;12.068;2022-10-16T18:13:02;55.88;;;34.67;;
53644;SDS011;39547;45.554;12.068;2022-10-16T18:19:03;56.92;;;35.55;;
53644;SDS011;39547;45.554;12.068;2022-10-16T18:25:05;61.72;;;37.20;;
53644;SDS011;39547;45.554;12.068;2022-10-16T18:31:10;64.05;;;37.17;;
53644;SDS011;39547;45.554;12.068;2022-10-16T18:37:13;64.50;;;38.35;;
53644;SDS011;39547;45.554;12.068;2022-10-16T18:43:15;64.32;;;37.85;;
53644;SDS011;39547;45.554;12.068;2022-10-16T18:49:18;61.92;;;37.53;;
53644;SDS011;39547;45.554;12.068;2022-10-16T18:55:20;58.13;;;34.53;;
53644;SDS011;39547;45.554;12.068;2022-10-16T19:01:22;62.85;;;37.25;;
53644;SDS011;39547;45.554;12.068;2022-10-16T19:07:24;60.72;;;35.90;;
53644;SDS011;39547;45.554;12.068;2022-10-16T19:13:27;61.72;;;36.67;;
53644;SDS011;39547;45.554;12.068;2022-10-16T19:19:28;62.85;;;37.03;;
53644;SDS011;39547;45.554;12.068;2022-10-16T19:25:30;64.80;;;37.42;;
53644;SDS011;39547;45.554;12.068;2022-10-16T19:31:31;66.15;;;39.28;;
53644;SDS011;39547;45.554;12.068;2022-10-16T19:37:34;60.03;;;34.92;;
53644;SDS011;39547;45.554;12.068;2022-10-16T19:43:36;74.60;;;40.95;;
53644;SDS011;39547;45.554;12.068;2022-10-16T19:49:38;71.78;;;39.22;;
53644;SDS011;39547;45.554;12.068;2022-10-16T19:55:40;66.93;;;36.33;;
53644;SDS011;39547;45.554;12.068;2022-10-16T20:01:41;75.75;;;40.95;;
53644;SDS011;39547;45.554;12.068;2022-10-16T20:07:43;69.03;;;37.33;;
53644;SDS011;39547;45.554;12.068;2022-10-16T20:13:44;81.93;;;43.05;;
53644;SDS011;39547;45.554;12.068;2022-10-16T20:19:46;74.57;;;40.80;;
53644;SDS011;39547;45.554;12.068;2022-10-16T20:25:47;78.80;;;43.58;;
53644;SDS011;39547;45.554;12.068;2022-10-16T20:31:49;79.82;;;43.60;;
53644;SDS011;39547;45.554;12.068;2022-10-16T20:37:51;93.38;;;47.25;;
53644;SDS011;39547;45.554;12.068;2022-10-16T20:43:52;82.03;;;44.95;;
53644;SDS011;39547;45.554;12.068;2022-10-16T20:49:55;82.15;;;43.88;;
53644;SDS011;39547;45.554;12.068;2022-10-16T20:55:59;76.55;;;40.72;;
53644;SDS011;39547;45.554;12.068;2022-10-16T21:02:01;82.57;;;43.92;;
53644;SDS011;39547;45.554;12.068;2022-10-16T21:08:02;84.88;;;44.42;;
53644;SDS011;39547;45.554;12.068;2022-10-16T21:14:05;86.20;;;43.70;;
53644;SDS011;39547;45.554;12.068;2022-10-16T21:20:08;75.60;;;39.33;;
53644;SDS011;39547;45.554;12.068;2022-10-16T21:26:10;91.78;;;47.45;;
53644;SDS011;39547;45.554;12.068;2022-10-16T21:32:11;90.63;;;45.53;;
53644;SDS011;39547;45.554;12.068;2022-10-16T21:38:12;90.65;;;45.25;;
53644;SDS011;39547;45.554;12.068;2022-10-16T21:44:14;84.90;;;44.65;;
53644;SDS011;39547;45.554;12.068;2022-10-16T21:50:17;86.18;;;45.15;;
53644;SDS011;39547;45.554;12.068;2022-10-16T21:56:18;84.38;;;43.70;;
53644;SDS011;39547;45.554;12.068;2022-10-16T22:02:20;86.15;;;44.28;;
53644;SDS011;39547;45.554;12.068;2022-10-16T22:08:21;82.43;;;42.97;;
53644;SDS011;39547;45.554;12.068;2022-10-16T22:14:23;85.47;;;44.33;;
53644;SDS011;39547;45.554;12.068;2022-10-16T22:20:24;86.53;;;43.88;;
53644;SDS011;39547;45.554;12.068;2022-10-16T22:26:26;80.13;;;41.95;;
53644;SDS011;39547;45.554;12.068;2022-10-16T22:32:27;80.47;;;42.60;;
53644;SDS011;39547;45.554;12.068;2022-10-16T22:38:29;78.10;;;41.35;;
53644;SDS011;39547;45.554;12.068;2022-10-16T22:44:31;84.28;;;42.75;;
53644;SDS011;39547;45.554;12.068;2022-10-16T22:50:33;84.13;;;43.28;;
53644;SDS011;39547;45.554;12.068;2022-10-16T22:56:34;80.20;;;40.05;;
53644;SDS011;39547;45.554;12.068;2022-10-16T23:02:35;83.47;;;42.90;;
53644;SDS011;39547;45.554;12.068;2022-10-16T23:08:37;84.05;;;43.72;;
53644;SDS011;39547;45.554;12.068;2022-10-16T23:14:38;82.40;;;43.20;;
53644;SDS011;39547;45.554;12.068;2022-10-16T23:20:40;91.18;;;44.63;;
53644;SDS011;39547;45.554;12.068;2022-10-16T23:26:41;83.38;;;43.58;;
53644;SDS011;39547;45.554;12.068;2022-10-16T23:32:43;90.65;;;44.85;;
53644;SDS011;39547;45.554;12.068;2022-10-16T23:38:44;87.60;;;45.05;;
53644;SDS011;39547;45.554;12.068;2022-10-16T23:44:46;87.97;;;43.53;;
53644;SDS011;39547;45.554;12.068;2022-10-16T23:50:48;84.57;;;43.78;;
53644;SDS011;39547;45.554;12.068;2022-10-16T23:56:49;92.88;;;46.40;;
